Time;durP1;ratioP1;P1;durP2;ratioP2;P2;SDS_P1;SDS_P2;PMS_P1;PMS_P2;Temp;Humidity;BMP_temperature;BMP_pressure;BME280_temperature;BME280_humidity;BME280_pressure;Samples;Min_cycle;Max_cycle;Signal;HPM_P1;HPM_P2
2022/11/21 00:01:20;;;;;;;25.33;17.17;;;0.60;99.90;;;;;;4844141;29;20495;-59
2022/11/21 00:03:48;;;;;;;24.87;17.20;;;0.50;99.90;;;;;;4844015;29;20484;-59
2022/11/21 00:06:17;;;;;;;24.33;17.97;;;0.50;99.90;;;;;;4844609;29;20897;-59
2022/11/21 00:08:45;;;;;;;23.87;18.23;;;0.50;99.90;;;;;;4843942;29;20497;-59
2022/11/21 00:11:15;;;;;;;25.73;18.33;;;0.60;99.90;;;;;;4843888;29;20488;-59
2022/11/21 00:13:44;;;;;;;24.60;17.60;;;0.60;99.90;;;;;;4843843;29;20837;-56
2022/11/21 00:16:14;;;;;;;24.67;17.87;;;0.60;99.90;;;;;;4844489;29;20472;-59
2022/11/21 00:18:43;;;;;;;26.80;19.23;;;0.80;99.90;;;;;;4843933;29;21048;-59
2022/11/21 00:21:13;;;;;;;25.83;18.23;;;0.60;99.90;;;;;;4843928;29;20531;-59
2022/11/21 00:23:41;;;;;;;28.70;17.63;;;0.60;99.90;;;;;;4843391;29;20488;-59
2022/11/21 00:26:11;;;;;;;25.97;19.10;;;0.60;99.90;;;;;;4843768;29;20537;-59
2022/11/21 00:28:41;;;;;;;25.93;18.07;;;0.50;99.90;;;;;;4843580;29;21000;-59
2022/11/21 00:31:09;;;;;;;26.03;18.90;;;0.60;99.90;;;;;;4843537;29;20485;-60
2022/11/21 00:33:37;;;;;;;23.93;17.50;;;0.60;99.90;;;;;;4843336;29;20479;-59
2022/11/21 00:36:07;;;;;;;25.50;17.70;;;0.60;99.90;;;;;;4825701;29;20474;-60
2022/11/21 00:38:36;;;;;;;26.37;17.50;;;0.80;99.90;;;;;;4825141;29;20572;-59
2022/11/21 00:41:04;;;;;;;24.07;17.97;;;0.70;99.90;;;;;;4825493;29;20833;-59
2022/11/21 00:43:32;;;;;;;23.13;17.73;;;0.60;99.90;;;;;;4824966;29;21012;-59
2022/11/21 00:46:03;;;;;;;23.90;17.43;;;0.60;99.90;;;;;;4843308;29;20477;-59
2022/11/21 00:48:31;;;;;;;22.10;16.70;;;0.60;99.90;;;;;;4843634;29;20479;-59
2022/11/21 00:51:00;;;;;;;25.53;17.17;;;0.70;99.90;;;;;;4843333;29;20483;-57
2022/11/21 00:53:28;;;;;;;20.17;14.73;;;0.70;99.90;;;;;;4843078;29;20493;-59
2022/11/21 00:55:57;;;;;;;22.03;15.63;;;0.60;99.90;;;;;;4843265;29;20473;-59
2022/11/21 00:58:25;;;;;;;24.23;17.53;;;0.70;99.90;;;;;;4843085;29;20488;-58
2022/11/21 01:01:01;;;;;;;22.43;16.73;;;0.60;99.90;;;;;;4843639;29;21011;-59
2022/11/21 01:03:32;;;;;;;24.20;16.37;;;0.60;99.90;;;;;;4842901;29;20505;-59
2022/11/21 01:06:02;;;;;;;24.73;16.90;;;0.60;99.90;;;;;;4843156;29;20476;-59
2022/11/21 01:08:30;;;;;;;31.30;19.40;;;0.70;99.90;;;;;;4842951;29;20484;-59
2022/11/21 01:11:03;;;;;;;23.93;17.33;;;0.60;99.90;;;;;;4842991;29;20881;-59
2022/11/21 01:13:31;;;;;;;23.60;16.53;;;0.50;99.90;;;;;;4842802;29;20472;-59
2022/11/21 01:16:03;;;;;;;25.27;17.77;;;0.60;99.90;;;;;;4842999;29;20480;-60
2022/11/21 01:18:33;;;;;;;20.90;15.73;;;0.50;99.90;;;;;;4842579;29;20830;-59
2022/11/21 01:21:01;;;;;;;20.07;15.10;;;0.50;99.90;;;;;;4842834;29;20590;-59
2022/11/21 01:23:30;;;;;;;21.33;16.13;;;0.50;99.90;;;;;;4842599;29;20486;-59
2022/11/21 01:26:02;;;;;;;20.67;15.20;;;0.50;99.90;;;;;;4842827;29;20476;-59
2022/11/21 01:28:30;;;;;;;21.93;16.00;;;0.50;99.90;;;;;;4842825;29;20472;-59
2022/11/21 01:31:04;;;;;;;22.13;15.50;;;0.40;99.90;;;;;;4841945;29;20485;-59
2022/11/21 01:33:34;;;;;;;22.40;14.50;;;0.30;99.90;;;;;;4842891;29;20468;-58
2022/11/21 01:36:11;;;;;;;19.90;14.90;;;0.30;99.90;;;;;;4842291;29;20488;-59
2022/11/21 01:38:39;;;;;;;15.60;12.47;;;0.30;99.90;;;;;;4842547;29;20492;-58
2022/11/21 01:41:09;;;;;;;16.63;12.57;;;0.30;99.90;;;;;;4842960;29;20534;-59
2022/11/21 01:43:37;;;;;;;15.63;13.10;;;0.40;99.90;;;;;;4842212;29;20492;-59
2022/11/21 01:46:11;;;;;;;15.90;13.20;;;0.40;99.90;;;;;;4842220;29;20532;-59
2022/11/21 01:48:45;;;;;;;15.53;12.50;;;0.40;99.90;;;;;;4842216;29;20470;-59
2022/11/21 01:51:19;;;;;;;16.77;13.53;;;0.40;99.90;;;;;;4842089;29;20488;-59
2022/11/21 01:53:52;;;;;;;16.30;13.67;;;0.30;99.90;;;;;;4841903;29;20488;-59
2022/11/21 01:56:21;;;;;;;16.93;13.40;;;0.30;99.90;;;;;;4827989;29;20516;-59
2022/11/21 01:58:51;;;;;;;14.90;11.77;;;0.30;99.90;;;;;;4842065;29;20499;-59
2022/11/21 02:01:20;;;;;;;15.30;13.70;;;0.30;99.90;;;;;;4842578;29;20479;-59
2022/11/21 02:03:50;;;;;;;17.20;13.90;;;0.30;99.90;;;;;;4841854;29;20541;-56
2022/11/21 02:06:18;;;;;;;17.17;13.63;;;0.30;99.90;;;;;;4823961;29;20489;-59
2022/11/21 02:08:46;;;;;;;18.20;14.73;;;0.30;99.90;;;;;;4834744;29;20488;-59
2022/11/21 02:11:21;;;;;;;15.83;12.53;;;0.20;99.90;;;;;;4842332;29;20558;-59
2022/11/21 02:13:49;;;;;;;18.33;14.43;;;0.40;99.90;;;;;;4842226;29;20845;-59
2022/11/21 02:16:17;;;;;;;17.23;13.87;;;0.30;99.90;;;;;;4842228;29;20496;-59
2022/11/21 02:18:45;;;;;;;16.77;13.47;;;0.20;99.90;;;;;;4841756;29;20881;-59
2022/11/21 02:21:23;;;;;;;15.73;13.40;;;0.20;99.90;;;;;;4842026;29;20532;-59
2022/11/21 02:23:57;;;;;;;14.77;12.40;;;0.20;99.90;;;;;;4841744;29;20473;-60
2022/11/21 02:26:30;;;;;;;15.90;13.50;;;0.20;99.90;;;;;;4823912;29;20818;-59
2022/11/21 02:28:58;;;;;;;15.93;12.93;;;0.20;99.90;;;;;;4823989;29;21037;-60
2022/11/21 02:31:26;;;;;;;16.73;13.80;;;0.30;99.90;;;;;;4836829;29;20497;-58
2022/11/21 02:33:54;;;;;;;17.10;14.00;;;0.20;99.90;;;;;;4841940;29;20491;-58
2022/11/21 02:36:41;;;;;;;18.17;13.87;;;0.30;99.90;;;;;;4823852;29;20473;-59
2022/11/21 02:39:15;;;;;;;19.10;14.60;;;0.20;99.90;;;;;;4823793;29;20527;-58
2022/11/21 02:41:51;;;;;;;17.20;14.37;;;0.20;99.90;;;;;;4834028;29;20482;-59
2022/11/21 02:44:24;;;;;;;19.10;15.13;;;0.10;99.90;;;;;;4823665;29;20541;-59
2022/11/21 02:46:53;;;;;;;17.77;14.73;;;0.10;99.90;;;;;;4823797;29;20477;-59
2022/11/21 02:49:37;;;;;;;16.53;13.77;;;0.20;99.90;;;;;;4823845;29;20469;-59
2022/11/21 02:52:05;;;;;;;16.50;14.07;;;0.40;99.90;;;;;;4841216;29;20488;-60
2022/11/21 02:54:33;;;;;;;15.83;12.57;;;0.20;99.90;;;;;;4841472;29;20484;-59
2022/11/21 02:57:03;;;;;;;17.03;14.37;;;0.40;99.90;;;;;;4841645;29;20475;-59
2022/11/21 02:59:31;;;;;;;17.40;13.97;;;0.20;99.90;;;;;;4841674;29;20852;-58
2022/11/21 03:01:59;;;;;;;18.37;14.80;;;0.40;99.90;;;;;;4840968;29;20484;-59
2022/11/21 03:04:28;;;;;;;18.37;14.87;;;0.30;99.90;;;;;;4841786;29;20489;-58
2022/11/21 03:06:57;;;;;;;17.03;13.80;;;0.20;99.90;;;;;;4843931;29;20472;-60
2022/11/21 03:09:25;;;;;;;15.13;12.27;;;0.20;99.90;;;;;;4844995;29;20549;-58
2022/11/21 03:11:53;;;;;;;17.27;14.27;;;0.20;99.90;;;;;;4845308;29;20492;-59
2022/11/21 03:14:22;;;;;;;15.87;13.33;;;0.10;99.90;;;;;;4844912;29;20484;-59
2022/11/21 03:16:50;;;;;;;17.53;13.53;;;0.10;99.90;;;;;;4845221;29;20468;-59
2022/11/21 03:19:18;;;;;;;17.00;13.43;;;0.20;99.90;;;;;;4845041;29;20484;-59
2022/11/21 03:21:46;;;;;;;17.37;13.73;;;0.30;99.90;;;;;;4844135;29;20480;-59
2022/11/21 03:24:14;;;;;;;18.27;15.00;;;0.30;99.90;;;;;;4845096;29;20492;-59
2022/11/21 03:26:42;;;;;;;17.53;14.00;;;0.20;99.90;;;;;;4844486;29;20497;-59
2022/11/21 03:29:10;;;;;;;14.53;12.37;;;0.10;99.90;;;;;;4844761;29;20480;-59
2022/11/21 03:31:39;;;;;;;15.80;12.70;;;0.10;99.90;;;;;;4844053;29;20496;-59
2022/11/21 03:34:08;;;;;;;15.23;12.67;;;0.20;99.90;;;;;;4844803;29;20488;-59
2022/11/21 03:36:36;;;;;;;14.30;12.63;;;0.20;99.90;;;;;;4843601;29;20525;-58
2022/11/21 03:39:05;;;;;;;16.83;13.80;;;0.30;99.90;;;;;;4844632;29;20890;-59
2022/11/21 03:41:34;;;;;;;18.13;14.73;;;0.30;99.90;;;;;;4844200;29;20499;-59
2022/11/21 03:44:03;;;;;;;19.47;15.00;;;0.30;99.90;;;;;;4844606;29;20499;-59
2022/11/21 03:46:33;;;;;;;17.67;15.13;;;0.20;99.90;;;;;;4844305;29;20544;-59
2022/11/21 03:49:03;;;;;;;18.00;14.30;;;0.30;99.90;;;;;;4844460;29;21040;-58
2022/11/21 03:51:31;;;;;;;14.17;12.40;;;0.20;99.90;;;;;;4844198;29;20528;-59
2022/11/21 03:53:59;;;;;;;13.53;11.80;;;0.30;99.90;;;;;;4844157;29;20484;-59
2022/11/21 03:56:28;;;;;;;17.23;13.93;;;0.30;99.90;;;;;;4844163;29;20564;-58
2022/11/21 03:58:56;;;;;;;15.90;13.43;;;0.20;99.90;;;;;;4843829;29;20493;-59
2022/11/21 04:01:24;;;;;;;14.63;11.43;;;0.20;99.90;;;;;;4838737;29;21101;-59
2022/11/21 04:03:52;;;;;;;16.90;13.60;;;0.30;99.90;;;;;;4844019;29;20484;-58
2022/11/21 04:06:22;;;;;;;15.40;12.33;;;0.10;99.90;;;;;;4844379;29;20480;-60
2022/11/21 04:08:52;;;;;;;14.17;12.27;;;0.20;99.90;;;;;;4843974;29;20489;-59
2022/11/21 04:11:22;;;;;;;18.53;13.73;;;0.20;99.90;;;;;;4844543;29;20861;-59
2022/11/21 04:13:50;;;;;;;15.83;12.63;;;0.20;99.90;;;;;;4844201;29;20480;-59
2022/11/21 04:16:18;;;;;;;18.00;14.63;;;0.30;99.90;;;;;;4844162;29;20848;-58
2022/11/21 04:18:46;;;;;;;18.03;13.70;;;0.30;99.90;;;;;;4843594;29;20559;-59
2022/11/21 04:21:14;;;;;;;17.30;14.40;;;0.20;99.90;;;;;;4843680;29;20492;-59
2022/11/21 04:23:44;;;;;;;15.97;13.73;;;0.10;99.90;;;;;;4843554;29;20881;-59
2022/11/21 04:26:12;;;;;;;18.30;14.07;;;0.20;99.90;;;;;;4844002;29;20529;-59
2022/11/21 04:28:40;;;;;;;17.10;14.17;;;0.10;99.90;;;;;;4843017;29;20487;-59
2022/11/21 04:31:09;;;;;;;16.73;13.37;;;0.20;99.90;;;;;;4842652;29;21032;-59
2022/11/21 04:33:39;;;;;;;17.07;14.03;;;0.10;99.90;;;;;;4843320;29;20496;-57
2022/11/21 04:36:08;;;;;;;18.27;13.47;;;0.00;99.90;;;;;;4843872;29;20563;-59
2022/11/21 04:38:37;;;;;;;15.90;13.83;;;-0.10;99.90;;;;;;4843475;29;20551;-58
2022/11/21 04:41:06;;;;;;;16.13;12.40;;;-0.10;99.90;;;;;;4843564;29;20992;-58
2022/11/21 04:43:34;;;;;;;15.73;12.73;;;0.00;99.90;;;;;;4843262;29;20488;-59
2022/11/21 04:46:02;;;;;;;16.50;13.43;;;0.00;99.90;;;;;;4843823;29;20484;-59
2022/11/21 04:48:31;;;;;;;16.77;13.43;;;0.10;99.90;;;;;;4843138;29;20487;-58
2022/11/21 04:50:59;;;;;;;19.67;14.97;;;0.00;99.90;;;;;;4843015;29;20477;-59
2022/11/21 04:53:27;;;;;;;17.03;13.43;;;0.10;99.90;;;;;;4843078;29;20480;-58
2022/11/21 04:55:55;;;;;;;18.80;14.90;;;0.10;99.90;;;;;;4843264;29;20468;-59
2022/11/21 04:58:25;;;;;;;19.63;14.27;;;0.10;99.90;;;;;;4843209;29;20995;-59
2022/11/21 05:00:53;;;;;;;21.70;15.87;;;0.10;99.90;;;;;;4843340;29;20496;-59
2022/11/21 05:03:21;;;;;;;17.20;13.37;;;-0.10;99.90;;;;;;4843430;29;21228;-59
2022/11/21 05:05:49;;;;;;;18.03;14.27;;;-0.20;99.90;;;;;;4843148;29;20488;-59
2022/11/21 05:08:17;;;;;;;19.07;15.37;;;-0.30;99.90;;;;;;4843217;29;20979;-58
2022/11/21 05:13:32;;;;;;;18.93;14.50;;;-0.10;99.90;;;;;;4842648;29;20999;-58
2022/11/21 05:16:00;;;;;;;16.13;12.87;;;-0.20;99.90;;;;;;4842467;29;20480;-58
2022/11/21 05:18:28;;;;;;;18.30;13.70;;;-0.30;99.90;;;;;;4842536;29;20472;-58
2022/11/21 05:20:56;;;;;;;19.93;15.17;;;-0.30;99.90;;;;;;4842325;29;21000;-58
2022/11/21 05:23:24;;;;;;;19.07;13.83;;;-0.40;99.90;;;;;;4842928;29;20480;-58
2022/11/21 05:25:52;;;;;;;19.53;15.53;;;-0.40;99.90;;;;;;4842905;29;20480;-59
2022/11/21 05:28:20;;;;;;;18.97;14.20;;;-0.30;99.90;;;;;;4842436;29;20479;-59
2022/11/21 05:30:50;;;;;;;20.30;15.10;;;-0.40;99.90;;;;;;4842392;29;20487;-59
2022/11/21 05:33:19;;;;;;;17.90;13.77;;;-0.50;99.90;;;;;;4842811;29;20480;-58
2022/11/21 05:35:47;;;;;;;17.63;13.67;;;-0.50;99.90;;;;;;4842587;29;20870;-58
2022/11/21 05:38:15;;;;;;;18.87;14.30;;;-0.30;99.90;;;;;;4842070;29;20472;-58
2022/11/21 05:40:43;;;;;;;22.10;15.80;;;-0.40;99.90;;;;;;4842203;29;20496;-59
2022/11/21 05:45:58;;;;;;;18.10;13.27;;;-0.40;99.90;;;;;;4842441;29;20492;-58
2022/11/21 05:48:26;;;;;;;19.80;15.50;;;-0.40;99.90;;;;;;4841896;29;20830;-58
2022/11/21 05:50:54;;;;;;;21.60;15.57;;;-0.50;99.90;;;;;;4842487;29;20487;-58
2022/11/21 05:53:22;;;;;;;20.80;15.90;;;-0.50;99.90;;;;;;4842212;29;20480;-59
2022/11/21 05:55:50;;;;;;;20.57;15.20;;;-0.60;99.90;;;;;;4842632;29;20496;-58
2022/11/21 05:58:19;;;;;;;18.50;14.23;;;-0.70;99.90;;;;;;4839825;29;20484;-59
2022/11/21 06:00:47;;;;;;;19.80;15.17;;;-0.70;99.90;;;;;;4841790;29;20564;-57
2022/11/21 06:03:29;;;;;;;18.27;14.03;;;-0.70;99.90;;;;;;4838663;29;20472;-58
2022/11/21 06:06:02;;;;;;;20.47;13.60;;;-0.70;99.90;;;;;;4842293;29;20476;-59
2022/11/21 06:08:33;;;;;;;18.40;14.10;;;-0.40;99.90;;;;;;4842039;29;20571;-58
2022/11/21 06:11:02;;;;;;;21.93;13.97;;;-0.10;99.90;;;;;;4842265;29;20476;-58
2022/11/21 06:13:32;;;;;;;22.47;16.53;;;-0.10;99.90;;;;;;4840032;29;20889;-58
2022/11/21 06:16:02;;;;;;;23.17;17.23;;;-0.30;99.90;;;;;;4841317;29;20476;-58
2022/11/21 06:18:34;;;;;;;24.77;16.97;;;-0.60;99.90;;;;;;4844687;29;20471;-59
2022/11/21 06:21:03;;;;;;;20.67;15.63;;;-0.70;99.90;;;;;;4843774;29;22927;-58
2022/11/21 06:23:31;;;;;;;21.57;15.33;;;-0.80;99.90;;;;;;4845559;29;20485;-58
2022/11/21 06:26:01;;;;;;;22.87;15.20;;;-0.90;99.90;;;;;;4838792;29;20480;-58
2022/11/21 06:28:32;;;;;;;21.83;14.93;;;-0.90;99.90;;;;;;4845097;29;20483;-58
2022/11/21 06:31:03;;;;;;;20.37;13.90;;;-0.90;99.90;;;;;;4835549;29;20555;-58
2022/11/21 06:33:33;;;;;;;19.10;13.47;;;-0.90;99.90;;;;;;4846500;29;20501;-58
2022/11/21 06:36:02;;;;;;;21.20;14.13;;;-0.80;99.90;;;;;;4842260;29;20473;-58
2022/11/21 06:38:32;;;;;;;19.37;14.57;;;-0.90;99.90;;;;;;4842236;29;20493;-58
2022/11/21 06:41:04;;;;;;;20.33;13.83;;;-0.90;99.90;;;;;;4844082;29;20480;-59
2022/11/21 06:43:32;;;;;;;19.77;13.80;;;-0.90;99.90;;;;;;4835786;29;20487;-58
2022/11/21 06:46:02;;;;;;;16.73;12.80;;;-0.80;99.90;;;;;;4837961;29;20484;-55
2022/11/21 06:48:31;;;;;;;16.10;12.57;;;-0.90;99.90;;;;;;4833982;29;20487;-56
2022/11/21 06:51:05;;;;;;;17.83;13.47;;;-0.90;99.90;;;;;;4836140;29;20484;-58
2022/11/21 06:53:33;;;;;;;17.07;12.90;;;-0.90;99.90;;;;;;4837086;29;20477;-58
2022/11/21 06:56:01;;;;;;;17.13;13.43;;;-0.90;99.90;;;;;;4837898;29;20496;-55
2022/11/21 06:58:30;;;;;;;15.60;12.03;;;-0.90;99.90;;;;;;4839197;29;20488;-58
2022/11/21 07:00:58;;;;;;;15.93;11.93;;;-0.90;99.90;;;;;;4836644;29;20501;-58
2022/11/21 07:03:26;;;;;;;14.97;12.57;;;-0.90;99.90;;;;;;4838363;29;20499;-56
2022/11/21 07:05:58;;;;;;;18.03;13.00;;;-1.00;99.90;;;;;;4840103;29;20491;-58
2022/11/21 07:08:27;;;;;;;16.67;12.50;;;-1.00;99.90;;;;;;4837746;29;20523;-54
2022/11/21 07:10:55;;;;;;;15.10;11.33;;;-1.00;99.90;;;;;;4838365;29;20493;-52
2022/11/21 07:13:43;;;;;;;18.03;13.33;;;-1.00;99.90;;;;;;4835499;29;21022;-58
2022/11/21 07:16:14;;;;;;;16.07;12.50;;;-1.00;99.90;;;;;;4843601;29;20495;-58
2022/11/21 07:18:43;;;;;;;17.20;12.47;;;-1.00;99.90;;;;;;4837947;29;20490;-53
2022/11/21 07:21:12;;;;;;;18.37;13.33;;;-0.90;99.90;;;;;;4833954;29;20481;-58
2022/11/21 07:23:40;;;;;;;15.70;12.87;;;-1.00;99.90;;;;;;4837974;29;20481;-58
2022/11/21 07:26:10;;;;;;;18.63;13.27;;;-1.00;99.90;;;;;;4835405;29;20521;-58
2022/11/21 07:28:38;;;;;;;16.97;12.87;;;-1.00;99.90;;;;;;4835583;29;20488;-57
2022/11/21 07:31:06;;;;;;;17.30;12.27;;;-0.90;99.90;;;;;;4835383;29;21045;-58
2022/11/21 07:33:41;;;;;;;17.63;13.07;;;-0.60;99.90;;;;;;4836390;29;20485;-58
2022/11/21 07:36:12;;;;;;;16.33;12.70;;;-0.70;99.90;;;;;;4839152;29;20517;-58
2022/11/21 07:38:40;;;;;;;17.50;12.93;;;-0.80;99.90;;;;;;4837400;29;20467;-58
2022/11/21 07:41:09;;;;;;;17.23;13.63;;;-0.80;99.90;;;;;;4834364;29;20471;-58
2022/11/21 07:43:37;;;;;;;17.37;12.90;;;-0.90;99.90;;;;;;4837387;29;21063;-58
2022/11/21 07:46:05;;;;;;;17.40;12.63;;;-0.90;99.90;;;;;;4836084;29;20480;-58
2022/11/21 07:48:33;;;;;;;20.43;15.03;;;-0.70;99.90;;;;;;4837831;29;20716;-54
2022/11/21 07:51:03;;;;;;;18.77;15.97;;;-0.70;99.90;;;;;;4834355;29;20489;-58
2022/11/21 07:53:33;;;;;;;23.83;17.10;;;-0.70;99.90;;;;;;4842855;29;20986;-58
2022/11/21 07:56:01;;;;;;;20.87;15.80;;;-0.70;99.90;;;;;;4845321;29;20486;-56
2022/11/21 07:58:29;;;;;;;22.60;15.57;;;-0.80;99.90;;;;;;4847076;29;20491;-57
2022/11/21 08:00:57;;;;;;;17.77;13.87;;;-0.70;99.90;;;;;;4845155;29;20492;-55
2022/11/21 08:03:25;;;;;;;20.10;14.73;;;-0.60;99.90;;;;;;4847737;29;21103;-55
2022/11/21 08:05:53;;;;;;;20.57;15.03;;;-0.50;99.90;;;;;;4843479;29;20480;-58
2022/11/21 08:08:21;;;;;;;19.03;14.63;;;-0.60;99.90;;;;;;4838302;29;20543;-57
2022/11/21 08:10:51;;;;;;;19.73;15.43;;;-0.50;99.90;;;;;;4837369;29;20491;-58
2022/11/21 08:13:19;;;;;;;19.17;14.33;;;-0.50;99.90;;;;;;4836100;29;21171;-58
2022/11/21 08:15:47;;;;;;;21.40;15.20;;;-0.50;99.90;;;;;;4835728;29;20472;-55
2022/11/21 08:18:17;;;;;;;18.97;13.40;;;-0.50;99.90;;;;;;4840087;29;20500;-58
2022/11/21 08:20:46;;;;;;;22.23;16.70;;;-0.20;99.90;;;;;;4836901;29;20473;-58
2022/11/21 08:23:14;;;;;;;21.90;16.23;;;-0.30;99.90;;;;;;4838140;29;20512;-56
2022/11/21 08:25:43;;;;;;;21.40;16.07;;;-0.40;99.90;;;;;;4835510;29;20536;-56
2022/11/21 08:28:13;;;;;;;25.10;17.13;;;-0.40;99.90;;;;;;4841737;29;20492;-58
2022/11/21 08:30:41;;;;;;;25.27;17.07;;;-0.40;99.90;;;;;;4838665;29;20476;-56
2022/11/21 08:33:09;;;;;;;20.70;15.53;;;-0.40;99.90;;;;;;4845950;29;20846;-58
2022/11/21 08:35:37;;;;;;;22.77;16.53;;;-0.40;99.90;;;;;;4844732;29;20488;-59
2022/11/21 08:38:06;;;;;;;24.13;16.90;;;-0.40;99.90;;;;;;4839979;29;20484;-53
2022/11/21 08:40:35;;;;;;;24.37;17.03;;;-0.40;99.90;;;;;;4835406;29;20529;-56
2022/11/21 08:43:05;;;;;;;26.10;17.57;;;-0.30;99.90;;;;;;4835995;29;20504;-56
2022/11/21 08:45:35;;;;;;;24.30;16.53;;;-0.30;99.90;;;;;;4833672;29;20503;-55
2022/11/21 08:48:04;;;;;;;23.03;16.20;;;-0.30;99.90;;;;;;4834348;29;20509;-56
2022/11/21 08:50:33;;;;;;;27.00;18.07;;;-0.20;99.90;;;;;;4836218;29;20497;-58
2022/11/21 08:53:01;;;;;;;27.67;17.70;;;-0.30;99.90;;;;;;4833271;29;21019;-56
2022/11/21 08:55:29;;;;;;;26.37;18.33;;;-0.30;99.90;;;;;;4837083;29;20486;-58
2022/11/21 08:57:57;;;;;;;28.27;19.10;;;-0.30;99.90;;;;;;4831572;29;20476;-58
2022/11/21 09:00:26;;;;;;;29.70;19.23;;;-0.30;99.90;;;;;;4838617;29;20483;-58
2022/11/21 09:02:55;;;;;;;30.07;19.83;;;-0.20;99.90;;;;;;4833235;29;20513;-55
2022/11/21 09:05:23;;;;;;;29.50;20.23;;;-0.20;99.90;;;;;;4838233;29;20535;-55
2022/11/21 09:07:56;;;;;;;31.83;20.63;;;-0.20;99.90;;;;;;4835905;29;21211;-58
2022/11/21 09:10:24;;;;;;;30.43;19.83;;;-0.20;99.90;;;;;;4835728;29;20496;-55
2022/11/21 09:12:52;;;;;;;36.83;23.87;;;-0.20;99.90;;;;;;4841356;29;20471;-58
2022/11/21 09:18:07;;;;;;;36.77;22.33;;;0.00;99.90;;;;;;4846120;29;20487;-58
2022/11/21 09:20:39;;;;;;;36.90;23.90;;;0.20;99.90;;;;;;4846215;29;20495;-59
2022/11/21 09:23:09;;;;;;;37.47;23.37;;;0.40;99.90;;;;;;4845810;29;20503;-59
2022/11/21 09:25:37;;;;;;;36.37;23.57;;;0.60;99.90;;;;;;4843708;29;20497;-56
2022/11/21 09:28:07;;;;;;;34.90;23.27;;;0.70;99.90;;;;;;4833917;29;20498;-59
2022/11/21 09:30:36;;;;;;;35.63;22.33;;;0.90;99.90;;;;;;4834402;29;20529;-57
2022/11/21 09:33:07;;;;;;;33.40;22.17;;;0.90;99.90;;;;;;4835639;29;20528;-57
2022/11/21 09:35:36;;;;;;;34.53;22.83;;;1.10;99.90;;;;;;4833947;29;21070;-56
2022/11/21 09:38:05;;;;;;;32.90;22.77;;;1.10;99.90;;;;;;4834572;29;20488;-58
2022/11/21 09:40:35;;;;;;;33.30;21.53;;;1.10;99.90;;;;;;4839178;29;20481;-57
2022/11/21 09:43:20;;;;;;;37.43;24.67;;;1.10;99.90;;;;;;4844940;29;20492;-56
2022/11/21 09:45:50;;;;;;;35.33;23.30;;;1.20;99.90;;;;;;4844993;29;20555;-58
2022/11/21 09:48:27;;;;;;;33.63;22.77;;;1.30;99.90;;;;;;4845164;29;21042;-59
2022/11/21 09:51:01;;;;;;;32.33;22.93;;;1.50;99.90;;;;;;4842860;29;20494;-58
2022/11/21 09:53:34;;;;;;;34.17;21.43;;;1.50;99.90;;;;;;4835491;29;20482;-59
2022/11/21 09:56:06;;;;;;;29.23;21.17;;;1.70;99.90;;;;;;4823627;29;20486;-59
2022/11/21 09:58:39;;;;;;;30.03;20.27;;;1.90;99.90;;;;;;4834511;29;21592;-59
2022/11/21 10:01:11;;;;;;;31.00;21.57;;;1.90;99.90;;;;;;4832799;29;20486;-59
2022/11/21 10:03:43;;;;;;;30.00;20.90;;;2.10;99.90;;;;;;4838783;29;21368;-59
2022/11/21 10:06:19;;;;;;;28.93;20.97;;;2.10;99.90;;;;;;4839705;29;20540;-58
2022/11/21 10:08:58;;;;;;;25.90;19.33;;;2.20;99.90;;;;;;4839377;29;20494;-58
2022/11/21 10:12:35;;;;;;;27.23;20.40;;;2.30;99.90;;;;;;4832368;29;20485;-58
2022/11/21 10:14:40;;;;;;;26.97;18.57;;;2.40;99.90;;;;;;4830583;29;20871;-55
2022/11/21 10:17:15;;;;;;;26.17;18.47;;;2.60;99.90;;;;;;4835068;29;20485;-60
2022/11/21 10:20:02;;;;;;;27.00;19.27;;;2.70;99.90;;;;;;4834928;29;20493;-56
2022/11/21 10:22:55;;;;;;;25.07;18.07;;;2.80;99.90;;;;;;4826043;29;20478;-60
2022/11/21 10:25:25;;;;;;;26.13;17.90;;;2.90;99.90;;;;;;4820843;29;20960;-56
2022/11/21 10:28:01;;;;;;;26.37;18.43;;;3.10;99.90;;;;;;4824313;29;21099;-58
2022/11/21 10:30:30;;;;;;;24.70;17.63;;;3.30;99.90;;;;;;4828445;29;20488;-59
2022/11/21 10:33:02;;;;;;;23.00;16.63;;;3.30;99.90;;;;;;4835834;29;20482;-59
2022/11/21 10:35:39;;;;;;;23.80;17.20;;;3.40;99.90;;;;;;4837894;29;20475;-58
2022/11/21 10:38:21;;;;;;;25.50;17.40;;;3.60;99.90;;;;;;4835904;29;20826;-59
2022/11/21 10:40:52;;;;;;;22.43;15.90;;;3.70;99.90;;;;;;4835366;29;20854;-56
2022/11/21 10:46:16;;;;;;;22.10;15.97;;;3.80;99.90;;;;;;4837239;29;20495;-58
2022/11/21 10:48:55;;;;;;;20.57;15.57;;;3.90;99.90;;;;;;4835042;29;20479;-60
2022/11/21 10:51:40;;;;;;;23.83;15.60;;;4.00;99.90;;;;;;4836760;29;20487;-57
2022/11/21 10:57:07;;;;;;;21.13;14.67;;;3.90;99.90;;;;;;4837100;29;20527;-54
2022/11/21 10:59:35;;;;;;;19.60;15.53;;;4.00;99.90;;;;;;4832079;29;20484;-60
2022/11/21 11:02:22;;;;;;;21.83;14.90;;;4.20;99.90;;;;;;4820358;29;20475;-58
2022/11/21 11:05:21;;;;;;;21.37;15.87;;;4.30;99.90;;;;;;4823381;29;21028;-55
2022/11/21 11:08:06;;;;;;;18.47;13.70;;;4.30;99.90;;;;;;4824179;29;20490;-60
2022/11/21 11:10:37;;;;;;;17.77;14.00;;;4.30;99.90;;;;;;4825203;29;20485;-60
2022/11/21 11:16:19;;;;;;;18.57;13.63;;;4.30;99.90;;;;;;4821622;29;20494;-57
2022/11/21 11:18:55;;;;;;;20.10;14.23;;;4.40;99.90;;;;;;4822958;29;20869;-60
2022/11/21 11:26:25;;;;;;;16.77;13.30;;;4.20;99.90;;;;;;4826337;29;20551;-57
2022/11/21 11:28:54;;;;;;;19.57;13.63;;;3.90;99.90;;;;;;4823471;29;21305;-57
2022/11/21 11:31:23;;;;;;;19.70;14.37;;;3.80;99.90;;;;;;4822083;29;20493;-59
2022/11/21 11:33:56;;;;;;;19.57;14.37;;;3.80;99.90;;;;;;4824104;29;21082;-61
2022/11/21 11:36:38;;;;;;;18.47;14.83;;;3.70;99.90;;;;;;4824329;29;20492;-59
2022/11/21 11:39:17;;;;;;;19.20;14.00;;;3.70;99.90;;;;;;4823542;29;20532;-59
2022/11/21 11:48:07;;;;;;;18.93;14.80;;;3.40;99.90;;;;;;4823661;29;20490;-56
2022/11/21 11:50:40;;;;;;;16.63;13.33;;;3.40;99.90;;;;;;4824925;29;20493;-55
2022/11/21 11:53:15;;;;;;;19.53;13.87;;;3.40;99.90;;;;;;4825691;29;20508;-60
2022/11/21 11:55:47;;;;;;;17.80;13.80;;;3.40;99.90;;;;;;4824710;29;20472;-58
2022/11/21 11:58:23;;;;;;;16.67;12.47;;;3.40;99.90;;;;;;4825004;29;20989;-60
2022/11/21 12:00:58;;;;;;;17.43;13.13;;;3.20;99.90;;;;;;4823740;29;20500;-58
2022/11/21 12:03:35;;;;;;;17.17;13.73;;;3.20;99.90;;;;;;4833268;29;20991;-59
2022/11/21 12:06:05;;;;;;;17.87;13.87;;;3.20;99.90;;;;;;4838343;29;20476;-58
2022/11/21 12:08:44;;;;;;;18.17;14.13;;;3.20;99.90;;;;;;4840884;29;20565;-60
2022/11/21 12:17:25;;;;;;;17.97;13.73;;;3.20;99.90;;;;;;4839546;29;21011;-60
2022/11/21 12:19:56;;;;;;;17.70;13.90;;;3.20;99.90;;;;;;4838763;29;20495;-59
2022/11/21 12:22:24;;;;;;;20.90;14.03;;;3.20;99.90;;;;;;4824913;29;20576;-60
2022/11/21 12:24:53;;;;;;;16.53;12.50;;;3.20;99.90;;;;;;4824440;29;20514;-58
2022/11/21 12:27:28;;;;;;;17.37;13.37;;;3.20;99.90;;;;;;4826028;29;20833;-60
2022/11/21 12:30:20;;;;;;;17.60;12.80;;;3.20;99.90;;;;;;4825518;29;21024;-60
2022/11/21 12:32:57;;;;;;;16.70;12.47;;;3.30;99.90;;;;;;4823289;29;20491;-60
2022/11/21 12:36:08;;;;;;;16.90;13.10;;;3.40;99.90;;;;;;4822019;29;20497;-59
2022/11/21 12:39:09;;;;;;;18.53;12.63;;;3.40;99.90;;;;;;4822737;29;20569;-60
2022/11/21 12:44:51;;;;;;;15.53;11.90;;;3.50;99.90;;;;;;4837163;29;20544;-60
2022/11/21 12:56:32;;;;;;;15.17;11.60;;;3.50;99.90;;;;;;4838405;29;20896;-60
2022/11/21 12:59:03;;;;;;;15.27;11.10;;;3.60;99.90;;;;;;4824171;29;20494;-57
2022/11/21 13:01:38;;;;;;;14.57;10.80;;;3.70;99.90;;;;;;4827173;29;20486;-61
2022/11/21 13:04:15;;;;;;;15.77;11.07;;;3.70;99.90;;;;;;4832725;29;20475;-60
2022/11/21 13:06:46;;;;;;;14.00;11.00;;;3.70;99.90;;;;;;4837072;29;20490;-60
2022/11/21 13:09:18;;;;;;;16.33;11.67;;;3.70;99.90;;;;;;4836310;29;20486;-60
2022/11/21 13:11:59;;;;;;;13.67;10.70;;;3.70;99.90;;;;;;4843803;29;20484;-59
2022/11/21 13:14:38;;;;;;;15.13;10.73;;;3.70;99.90;;;;;;4845471;29;21048;-59
2022/11/21 13:17:20;;;;;;;13.83;10.60;;;3.80;99.90;;;;;;4844909;29;20472;-60
2022/11/21 13:19:54;;;;;;;12.87;10.63;;;3.80;99.90;;;;;;4838330;29;20535;-59
2022/11/21 13:22:51;;;;;;;13.57;10.77;;;3.80;99.90;;;;;;4834418;29;20492;-55
2022/11/21 13:25:45;;;;;;;13.73;9.70;;;3.80;99.90;;;;;;4833733;29;20516;-60
2022/11/21 13:28:34;;;;;;;13.00;9.50;;;3.80;99.90;;;;;;4836296;29;21021;-56
2022/11/21 13:31:28;;;;;;;12.83;9.60;;;3.70;99.90;;;;;;4835190;29;20558;-61
2022/11/21 13:33:57;;;;;;;11.30;8.40;;;3.70;99.90;;;;;;4833093;29;20484;-57
2022/11/21 13:36:38;;;;;;;12.53;9.30;;;3.50;99.90;;;;;;4836131;29;20886;-60
2022/11/21 13:39:34;;;;;;;13.40;9.27;;;3.60;99.90;;;;;;4830756;29;20486;-57
2022/11/21 13:45:20;;;;;;;11.63;8.43;;;3.60;99.90;;;;;;4835518;29;20858;-61